Terminal Aerodrome Forecast
Issued by NWS Lake Charles, LA

Home | Current Version | Previous Version | Text Only | Print | Product List | Glossary On
Versions: 1 2 3 4 5 6 7 8 9 10 11 12
000
FTUS44 KLCH 031734
TAFLFT
TAF
KLFT 031734Z 0318/0418 10014G22KT P6SM VCSH SCT025 OVC040
      TEMPO 0322/0402 2SM -SHRA BR OVC008
     FM040200 09010G18KT 4SM -SHRA BR OVC008=

USA.gov is the U.S. government's official web portal to all federal, state and local government web resources and services.